Terminal Aerodrome Forecast
Issued by NWS

Home | Current Version | Previous Version | Graphics & Text | Print | Product List | Glossary On
Versions: 1 2 3 4 5 6 7 8 9 10 11 12 13 14 15 16 17 18 19
152
FTUS43 KMPX 192339
TAFRNH
TAF
KRNH 192339Z 2000/2024 14006KT P6SM SCT250
     FM200300 14011KT P6SM OVC200 WS020/20045KT
     FM200900 14010KT P6SM SCT050 OVC080
     FM201200 15010KT P6SM OVC050
     FM201600 15010KT 4SM SHRA BR VCTS OVC020CB
     FM202200 18010KT P6SM BKN015=

USA.gov is the U.S. government's official web portal to all federal, state and local government web resources and services.